Tiempo atmosférico en la estación meteorológica de Fregenal De La Sierra, Badajoz (586 m.)



Fecha
DESCASC
Temp. máxima en grados centígrados (hora)
DESCASC
Temp. mínima en grados centígrados (hora)
DESCASC
Temp. media en grados centígrados
DESCASC
Racha de viento máxima en m/sg (hora)
DESCASC
Velocidad máxima media en intervalos de 10 minutos(hora)
DESCASC
Precipitaciones diarias en mm
DESCASC
Precipitaciones de 00:00 a 06:00 en mm
DESCASC
Precipitaciones de 06:00 a 12:00 en mm
DESCASC
Precipitaciones de 12:00 a 18:00 en mm
DESCASC
Precipitaciones de 18:00 a 24:00 en mm
DESCASC
18-01-2018 16 (15:00) 3.4 (08:00) 9.7 5.83 (00:30) 3.33 (15:40) 0 0 0 0 0
17-01-2018 14.2 (15:40) 5.5 (08:50) 9.8 8.89 (12:20) 5.28 (12:20) 0 0 0 0 0
16-01-2018 13.8 (15:20) -0.3 (02:50) 6.8 6.39 (16:20) 3.89 (16:20) 0 0 0 0 0
15-01-2018 10.3 (15:50) 0.1 (04:30) 5.2 6.94 (13:30) 3.33 (13:00) 0 0 0 0 0
14-01-2018 7.8 (16:30) 1.1 (00:00) 4.5 7.22 (08:00) 3.89 (15:50) 3.4 0 3.4 0 0
13-01-2018 10 (16:50) 2.7 (00:00) 6.4 8.89 (17:10) 4.72 (16:00) 6.4 0 5.8 0.6 0
12-01-2018 11.1 (14:40) -1.6 (-00:0) 4.8 5.83 (00:40) 2.78 (00:30) 0 0 0 0 0
11-01-2018 11 (16:20) 2.7 (00:00) 6.9 12.22 (11:20) 5.56 (13:00) 0.2 0 0.2 0 0
10-01-2018 12.3 (15:30) 5.7 (00:00) 9 11.11 (14:40) 5.28 (20:00) 2 0.2 0 1.8 0
09-01-2018 9.4 (23:30) -2.1 (-00:0) 3.6 11.11 (16:50) 6.67 (16:50) 8.4 0 0.6 6 1.8
08-01-2018 6.4 (16:00) -1.1 (-00:0) 2.7 7.22 (13:00) 3.61 (12:10) 2.6 2 0.6 0 0
07-01-2018 5.1 (13:50) 0.5 (00:00) 2.8 7.78 (04:10) 4.17 (04:00) 0.6 0 0.4 0.2 0
06-01-2018 7.5 (14:00) 1.4 (00:00) 4.4 12.22 (15:20) 6.11 (14:10) 0.4 0.4 0 0 0
05-01-2018 11.3 (14:00) 6.4 (00:00) 8.9 9.72 (15:00) 4.72 (14:10) 18.4 0.2 1 7.8 9.4
04-01-2018 12.6 (16:30) 10 (09:50) 11.3 5.83 (13:30) 3.06 (12:40) 0 0 0 0 0
03-01-2018 13.6 (13:30) 9.9 (00:00) 11.8 6.11 (08:10) 3.33 (12:10) 0.2 0 0.2 0 0
02-01-2018 13.1 (16:20) 1.4 (00:00) 7.3 6.11 (12:10) 3.61 (14:10) 0.2 0 0.2 0 0
01-01-2018 11.8 (15:30) 1.2 (00:00) 6.5 5.56 (14:10) 3.33 (14:00) 0.2 0.2 0 0 0
31-12-2017 13.4 (14:30) 4.9 (00:00) 9.1 9.72 (18:10) 4.44 (18:10) 1.8 0 0 1.6 0.2
30-12-2017 15.3 (16:20) 6 (00:00) 10.7 4.44 (13:00) 2.5 (13:00) 0 0 0 0 0
29-12-2017 13.5 (16:00) 10.7 (00:00) 12.1 10.28 (09:20) 4.17 (01:50) 2.2 1.2 0.8 0.2 0
28-12-2017 12.6 (15:50) 9.2 (00:00) 10.9 13.06 (04:40) 6.11 (05:30) 8.4 2.4 3.4 1.2 1.4
27-12-2017 11 (04:40) 8.3 (00:00) 9.7 16.67 (05:10) 7.5 (05:10) 7.6 7.2 0.4 0 0
26-12-2017 9.8 (02:40) 6 (00:00) 7.9 10 (22:10) 3.89 (03:10) 6.8 5.4 0 0 1.4
25-12-2017 12.2 (16:10) 5.8 (00:00) 9 7.22 (13:30) 3.06 (06:50) 1.6 0.8 0 0.2 0.6
24-12-2017 14.4 (16:20) 2.6 (00:00) 8.5 7.22 (12:20) 3.61 (12:20) 0 0 0 0 0

Gráficas

Temp. máximas Temp. mínimas Temp. medias Precipitaciones Rachas de viento máximas Velocidades máximas media en intervalos de 10 minutos

Datos horarios

Fecha y hora oficial Temperatura (ºC) Velocidad del viento (km/h) Dirección del viento Racha (km/h) Dirección de racha Precipitación (mm) Presión (hPa) Tendencia (hPa) Humedad (%)
2018-01-22 23:00:00 6.2 3 Norte 12 Noroeste 0 -- -- 95
2018-01-22 22:00:00 7 10 Norte 14 Norte 0 -- -- 96
2018-01-22 21:00:00 5.9 0 Calma 6 Noroeste 0 -- -- 94
2018-01-22 20:00:00 6.8 4 Noroeste 11 Norte 0 -- -- 91
2018-01-22 19:00:00 9 4 Noroeste 10 Norte 0 -- -- 87
2018-01-22 18:00:00 12.8 7 Norte 15 Nordeste 0 -- -- 78
2018-01-22 17:00:00 14.9 7 Norte 13 Norte 0 -- -- 65
2018-01-22 16:00:00 15.7 9 Noroeste 15 Norte 0 -- -- 63
2018-01-22 15:00:00 15.5 8 Nordeste 16 Norte 0 -- -- 70
2018-01-22 14:00:00 15.4 4 Norte 13 Nordeste 0 -- -- 70
2018-01-22 13:00:00 14.6 4 Norte 8 Norte 0 -- -- 74
2018-01-22 12:00:00 11.6 3 Nordeste 6 Nordeste 0 -- -- 94
2018-01-22 11:00:00 8.5 0 Calma 8 Nordeste 0 -- -- 100
2018-01-22 10:00:00 5.9 0 Calma 8 Norte 0 -- -- 100
2018-01-22 09:00:00 5.6 4 Noroeste 8 Noroeste 0.2 -- -- 100
2018-01-22 08:00:00 2.6 4 Noroeste 5 Norte 0 -- -- 99
2018-01-22 07:00:00 2.7 3 Noroeste 4 Noroeste 0 -- -- 98
2018-01-22 06:00:00 3.3 2 Noroeste 5 Sur 0 -- -- 99
2018-01-22 05:00:00 2.6 2 Noroeste 3 Noroeste 0 -- -- 98
2018-01-22 04:00:00 2.9 0 Calma 3 Nordeste 0 -- -- 99
2018-01-22 03:00:00 3.5 0 Calma 4 Norte 0 -- -- 98
2018-01-22 02:00:00 3.3 0 Calma 4 Norte 0 -- -- 98
2018-01-22 01:00:00 4 3 Noroeste 4 Noroeste 0 -- -- 98
2018-01-22 00:00:00 3.7 2 Noroeste 3 Noroeste 0 -- -- 96
2018-01-21 23:00:00 4.3 3 Norte 3 Norte 0 -- -- 96
2018-01-21 22:00:00 5.4 0 Calma 7 Noroeste 0 -- -- 95
2018-01-21 21:00:00 6.2 4 Noroeste 7 Noroeste 0 -- -- 94
2018-01-21 20:00:00 7.5 0 Calma 5 Oeste 0 -- -- 92
2018-01-21 19:00:00 9.1 3 Oeste 12 Noroeste 0 -- -- 86
2018-01-21 18:00:00 12.1 5 Noroeste 10 Norte 0 -- -- 77
2018-01-21 17:00:00 14.4 8 Noroeste 12 Norte 0 -- -- 66
2018-01-21 16:00:00 14.9 5 Norte 12 Noroeste 0 -- -- 65
2018-01-21 15:00:00 14.2 8 Norte 15 Norte 0 -- -- 63
2018-01-21 14:00:00 14.2 8 Noroeste 13 Noroeste 0 -- -- 66
2018-01-21 13:00:00 13.2 8 Norte 15 Norte 0 -- -- 69
2018-01-21 12:00:00 11.8 6 Norte 12 Norte 0 -- -- 75
2018-01-21 11:00:00 8 2 Sudeste 5 Sudeste 0 -- -- 89
2018-01-21 10:00:00 3.8 2 Sudeste 3 Sur 0 -- -- 99
2018-01-21 09:00:00 0.3 0 Calma 3 Noroeste 0 -- -- 99
2018-01-21 08:00:00 0.3 0 Calma 5 Sudoeste 0 -- -- 98
2018-01-21 07:00:00 0.9 0 Calma 3 Sudeste 0 -- -- 97
2018-01-21 06:00:00 2.1 0 Calma 5 Noroeste 0 -- -- 96
2018-01-21 05:00:00 3.8 0 Calma 10 Noroeste 0 -- -- 97
2018-01-21 04:00:00 4.9 5 Norte 10 Noroeste 0 -- -- 97
2018-01-21 03:00:00 4.3 0 Calma 12 Noroeste 0 -- -- 93
2018-01-21 02:00:00 4.4 0 Calma 6 Sur 0 -- -- 91
2018-01-21 01:00:00 6.4 0 Calma 12 Noroeste 0 -- -- 90
2018-01-21 00:00:00 7 0 Calma 20 Noroeste 0 -- -- 84
2018-01-20 23:00:00 7.8 11 Noroeste 17 Noroeste 0 -- -- 76
2018-01-20 22:00:00 8.1 7 Noroeste 21 Oeste 0 -- -- 67
2018-01-20 21:00:00 8.5 7 Noroeste 16 Noroeste 0 -- -- 66
2018-01-20 20:00:00 8.5 7 Noroeste 13 Noroeste 0 -- -- 72
2018-01-20 19:00:00 10.4 7 Noroeste 17 Noroeste 0 -- -- 68
2018-01-20 18:00:00 12.7 7 Noroeste 18 Noroeste 0 -- -- 61
2018-01-20 17:00:00 14.8 8 Noroeste 20 Noroeste 0 -- -- 41
2018-01-20 16:00:00 16.2 12 Noroeste 28 Noroeste 0 -- -- 36
2018-01-20 15:00:00 17.1 10 Noroeste 17 Noroeste 0 -- -- 28
2018-01-20 14:00:00 16.9 8 Norte 16 Norte 0 -- -- 26
2018-01-20 13:00:00 16.5 7 Norte 16 Nordeste 0 -- -- 33
2018-01-20 12:00:00 15 5 Nordeste 12 Norte 0 -- -- 37
2018-01-20 11:00:00 12.9 5 Norte 10 Norte 0 -- -- 51
2018-01-20 10:00:00 7.9 8 Norte 11 Norte 0 -- -- 72
2018-01-20 09:00:00 2 5 Noroeste 8 Noroeste 0 -- -- 95
2018-01-20 08:00:00 1.6 4 Noroeste 6 Noroeste 0 -- -- 94
2018-01-20 07:00:00 2.6 3 Noroeste 7 Noroeste 0 -- -- 91
2018-01-20 06:00:00 4.1 5 Noroeste 13 Noroeste 0 -- -- 86
2018-01-20 05:00:00 4.4 5 Noroeste 13 Noroeste 0 -- -- 87
2018-01-20 04:00:00 3 3 Noroeste 8 Norte 0 -- -- 89
2018-01-20 03:00:00 4.2 4 Noroeste 12 Noroeste 0 -- -- 87
2018-01-20 02:00:00 4.8 6 Noroeste 11 Noroeste 0 -- -- 83
2018-01-20 01:00:00 4.2 0 Calma 11 Noroeste 0 -- -- 86
2018-01-20 00:00:00 5.2 6 Noroeste 10 Noroeste 0 -- -- 83
2018-01-19 23:00:00 6.6 3 Norte 9 Noroeste 0 -- -- 79
2018-01-19 22:00:00 7.3 6 Noroeste 10 Norte 0 -- -- 78
2018-01-19 21:00:00 7.9 9 Norte 13 Noroeste 0 -- -- 75
2018-01-19 20:00:00 8.2 5 Noroeste 12 Norte 0 -- -- 73
2018-01-19 19:00:00 10.8 10 Norte 19 Norte 0 -- -- 64
2018-01-19 18:00:00 14.1 6 Noroeste 11 Norte 0 -- -- 55
2018-01-19 17:00:00 16.1 8 Nordeste 13 Nordeste 0 -- -- 42
2018-01-19 16:00:00 15.9 8 Nordeste 16 Nordeste 0 -- -- 47
2018-01-19 15:00:00 15.8 6 Nordeste 15 Norte 0 -- -- 47
2018-01-19 14:00:00 14.1 8 Nordeste 19 Norte 0 -- -- 55
2018-01-19 13:00:00 13 10 Nordeste 19 Norte 0 -- -- 58
2018-01-19 12:00:00 12.2 6 Nordeste 12 Norte 0 -- -- 59
2018-01-19 11:00:00 10.1 4 Nordeste 9 Nordeste 0 -- -- 65
2018-01-19 10:00:00 5.2 0 Calma 4 Norte 0 -- -- 92
2018-01-19 09:00:00 2.8 5 Noroeste 9 Noroeste 0 -- -- 90
2018-01-19 08:00:00 3.4 8 Norte 12 Norte 0 -- -- 96
2018-01-19 07:00:00 1.2 2 Noroeste 5 Noroeste 0 -- -- 97
2018-01-19 06:00:00 1.5 0 Calma 4 Noroeste 0 -- -- 95
2018-01-19 05:00:00 2.4 2 Norte 6 Sur 0 -- -- 94
2018-01-19 04:00:00 2.9 3 Este 9 Noroeste 0 -- -- 92
2018-01-19 03:00:00 5.1 6 Noroeste 12 Noroeste 0 -- -- 84
2018-01-19 02:00:00 2.2 5 Noroeste 6 Noroeste 0 -- -- 95
2018-01-19 01:00:00 2.6 3 Noroeste 5 Noroeste 0 -- -- 94
2018-01-19 00:00:00 3.4 4 Noroeste 5 Noroeste 0 -- -- 91
2018-01-18 23:00:00 4.3 2 Noroeste 10 Noroeste 0 -- -- 89
2018-01-18 22:00:00 5.4 5 Noroeste 8 Norte 0 -- -- 84
2018-01-18 21:00:00 7.8 3 Norte 12 Norte 0 -- -- 78
2018-01-18 20:00:00 7.3 6 Norte 8 Norte 0 -- -- 80
2018-01-18 19:00:00 9.9 3 Norte 11 Nordeste 0 -- -- 69
2018-01-18 18:00:00 12.6 4 Nordeste 15 Norte 0 -- -- 61
2018-01-18 17:00:00 14.8 8 Este 16 Nordeste 0 -- -- 58
2018-01-18 16:00:00 15.4 10 Nordeste 20 Nordeste 0 -- -- 55
2018-01-18 15:00:00 16 9 Nordeste 15 Norte 0 -- -- 54
2018-01-18 14:00:00 14.8 5 Nordeste 12 Nordeste 0 -- -- 54
2018-01-18 13:00:00 13 6 Nordeste 14 Este 0 -- -- 60
2018-01-18 12:00:00 12.2 4 Nordeste 10 Nordeste 0 -- -- 61
2018-01-18 11:00:00 10.2 2 Nordeste 7 Nordeste 0 -- -- 67
2018-01-18 10:00:00 6.9 3 Norte 8 Norte 0 -- -- 80
2018-01-18 09:00:00 4.5 3 Norte 8 Nordeste 0 -- -- 89
2018-01-18 08:00:00 3.4 4 Noroeste 8 Nordeste 0 -- -- 90
2018-01-18 07:00:00 4.6 4 Norte 12 Este 0 -- -- 91
2018-01-18 06:00:00 5.1 4 Norte 14 Nordeste 0 -- -- 94
2018-01-18 05:00:00 5 5 Norte 10 Norte 0 -- -- 96
2018-01-18 04:00:00 5.3 2 Norte 9 Norte 0 -- -- 94
2018-01-18 03:00:00 6.1 5 Norte 10 Norte 0 -- -- 94
2018-01-18 02:00:00 6.6 6 Nordeste 14 Noroeste 0 -- -- 93
2018-01-18 01:00:00 6.9 6 Noroeste 21 Nordeste 0 -- -- 95
2018-01-18 00:00:00 6.8 5 Nordeste 14 Nordeste 0 -- -- 95
2018-01-17 23:00:00 6.8 6 Nordeste 13 Nordeste 0 -- -- 96
2018-01-17 22:00:00 7.1 9 Norte 15 Nordeste 0 -- -- 94
2018-01-17 21:00:00 8.1 8 Nordeste 20 Nordeste 0 -- -- 91
2018-01-17 20:00:00 8.4 6 Nordeste 16 Nordeste 0 -- -- 89
2018-01-17 19:00:00 9.6 6 Norte 16 Este 0 -- -- 85
2018-01-17 18:00:00 11.8 4 Nordeste 19 Nordeste 0 -- -- 74
2018-01-17 17:00:00 13.3 13 Nordeste 21 Nordeste 0 -- -- 68
2018-01-17 16:00:00 13.9 12 Nordeste 24 Nordeste 0 -- -- 65
2018-01-17 15:00:00 13.9 12 Nordeste 23 Norte 0 -- -- 64
2018-01-17 14:00:00 13.4 14 Nordeste 23 Nordeste 0 -- -- 68
2018-01-17 13:00:00 12.2 18 Nordeste 32 Nordeste 0 -- -- 71
2018-01-17 12:00:00 11.5 14 Nordeste 32 Norte 0 -- -- 78
2018-01-17 11:00:00 10.1 14 Nordeste 24 Norte 0 -- -- 96
2018-01-17 10:00:00 8.3 9 Norte 17 Norte 0 -- -- 100
2018-01-17 09:00:00 5.5 0 Calma 9 Norte 0 -- -- 100
2018-01-17 08:00:00 6.3 6 Norte 11 Nordeste 0 -- -- 100
2018-01-17 07:00:00 7.6 5 Norte 12 Nordeste 0 -- -- 100
2018-01-17 06:00:00 8.1 5 Nordeste 13 Nordeste 0 -- -- 100
2018-01-17 05:00:00 8.6 9 Nordeste 21 Nordeste 0 -- -- 100
2018-01-17 04:00:00 8.9 4 Norte 18 Norte 0 -- -- 100
2018-01-17 03:00:00 8.8 9 Norte 18 Norte 0 -- -- 100
2018-01-17 02:00:00 8.7 9 Norte 19 Norte 0 -- -- 100
2018-01-17 01:00:00 8.7 5 Norte 13 Norte 0 -- -- 99
2018-01-17 00:00:00 9 5 Norte 15 Norte 0 -- -- 99
2018-01-16 23:00:00 9.1 9 Norte 23 Norte 0 -- -- 99
2018-01-16 22:00:00 9.1 8 Norte 21 Norte 0 -- -- 99
2018-01-16 21:00:00 9 9 Norte 22 Norte 0 -- -- 98
2018-01-16 20:00:00 9 8 Norte 21 Noroeste 0 -- -- 98
2018-01-16 19:00:00 9.2 8 Norte 23 Norte 0 -- -- 96
2018-01-16 18:00:00 9.4 9 Norte 22 Noroeste 0 -- -- 94
2018-01-16 17:00:00 9.8 11 Noroeste 23 Noroeste 0 -- -- 92
2018-01-16 16:00:00 12.2 12 Noroeste 21 Noroeste 0 -- -- 82
2018-01-16 15:00:00 13.1 4 Noroeste 12 Noroeste 0 -- -- 77
2018-01-16 14:00:00 13.2 5 Noroeste 13 Nordeste 0 -- -- 75
2018-01-16 13:00:00 11.9 9 Norte 18 Norte 0 -- -- 79
2018-01-16 12:00:00 11.1 6 Norte 14 Noroeste 0 -- -- 75
2018-01-16 11:00:00 8.9 8 Norte 17 Noroeste 0 -- -- 78
2018-01-16 10:00:00 5.5 4 Noroeste 9 Noroeste 0 -- -- 84
2018-01-16 09:00:00 1.4 0 Calma 3 Sur 0 -- -- 94
2018-01-16 08:00:00 1.4 0 Calma 3 Norte 0 -- -- 95
2018-01-16 07:00:00 2.2 0 Calma 4 Norte 0 -- -- 96
2018-01-16 06:00:00 1.7 0 Calma 5 Noroeste 0 -- -- 97
2018-01-16 05:00:00 0.4 3 Noroeste 5 Norte 0 -- -- 97
2018-01-16 04:00:00 0.4 0 Calma 5 Noroeste 0 -- -- 98
2018-01-16 03:00:00 -0.3 2 Noroeste 4 Norte 0 -- -- 98
2018-01-16 02:00:00 0.1 0 Calma 4 Norte 0 -- -- 97
2018-01-16 01:00:00 0.4 2 Noroeste 4 Noroeste 0 -- -- 97
2018-01-16 00:00:00 0.6 3 Noroeste 5 Noroeste 0 -- -- 96
2018-01-15 23:00:00 0.9 2 Oeste 5 Noroeste 0 -- -- 94
2018-01-15 22:00:00 2.6 4 Noroeste 9 Noroeste 0 -- -- 90
2018-01-15 21:00:00 3.7 6 Noroeste 9 Noroeste 0 -- -- 91
2018-01-15 20:00:00 3 5 Noroeste 8 Norte 0 -- -- 88
2018-01-15 19:00:00 5.8 5 Norte 9 Nordeste 0 -- -- 78
2018-01-15 18:00:00 8.8 5 Nordeste 14 Nordeste 0 -- -- 66
2018-01-15 17:00:00 10 9 Nordeste 19 Este 0 -- -- 61
2018-01-15 16:00:00 10.3 10 Nordeste 24 Nordeste 0 -- -- 61
2018-01-15 15:00:00 10.1 9 Este 21 Nordeste 0 -- -- 62
2018-01-15 14:00:00 9.3 11 Este 25 Este 0 -- -- 67
2018-01-15 13:00:00 7.6 12 Nordeste 21 Nordeste 0 -- -- 71
2018-01-15 12:00:00 6.7 9 Nordeste 21 Nordeste 0 -- -- 74
2018-01-15 11:00:00 5.1 6 Nordeste 15 Nordeste 0 -- -- 84
2018-01-15 10:00:00 3.4 0 Calma 4 Nordeste 0 -- -- 91
2018-01-15 09:00:00 0.9 3 Norte 12 Nordeste 0 -- -- 96
2018-01-15 08:00:00 0.8 5 Nordeste 11 Nordeste 0 -- -- 96
2018-01-15 07:00:00 0.3 4 Norte 10 Norte 0 -- -- 96
2018-01-15 06:00:00 0.7 8 Norte 10 Norte 0 -- -- 95
2018-01-15 05:00:00 0.7 8 Norte 11 Noroeste 0 -- -- 96
2018-01-15 04:00:00 0.6 4 Noroeste 9 Norte 0 -- -- 95
2018-01-15 03:00:00 0.7 5 Norte 8 Norte 0 -- -- 96
2018-01-15 02:00:00 0.7 5 Noroeste 8 Norte 0 -- -- 95
2018-01-15 01:00:00 1.6 6 Norte 10 Norte 0 -- -- 92
2018-01-15 00:00:00 1.6 8 Norte 10 Norte 0 -- -- 96
2018-01-14 23:00:00 2 6 Noroeste 9 Noroeste 0 -- -- 95
2018-01-14 22:00:00 2.5 5 Norte 6 Norte 0 -- -- 94
2018-01-14 21:00:00 3.5 3 Noroeste 8 Noroeste 0 -- -- 91
2018-01-14 20:00:00 3.5 4 Noroeste 12 Noroeste 0 -- -- 88
2018-01-14 19:00:00 4.1 3 Noroeste 9 Noroeste 0 -- -- 85
2018-01-14 18:00:00 6.1 7 Noroeste 22 Noroeste 0 -- -- 78
2018-01-14 17:00:00 7.3 11 Noroeste 24 Noroeste 0 -- -- 74
2018-01-14 16:00:00 7.4 10 Noroeste 26 Norte 0 -- -- 74
2018-01-14 15:00:00 7.1 12 Noroeste 19 Noroeste 0 -- -- 78
2018-01-14 14:00:00 6.9 10 Noroeste 21 Norte 0 -- -- 81
2018-01-14 13:00:00 6.7 10 Noroeste 21 Noroeste 0 -- -- 86
2018-01-14 12:00:00 5.3 10 Noroeste 19 Noroeste 0 -- -- 93
2018-01-14 11:00:00 5.9 8 Noroeste 13 Noroeste 0 -- -- 96
2018-01-14 10:00:00 4.6 4 Noroeste 8 Noroeste 0.2 -- -- 98
2018-01-14 09:00:00 4.2 3 Noroeste 16 Noroeste 0.6 -- -- 98
2018-01-14 08:00:00 4.2 13 Noroeste 26 Noroeste 2.6 -- -- 97
2018-01-14 07:00:00 4.9 3 Oeste 7 Noroeste 0 -- -- 98
2018-01-14 06:00:00 5.5 4 Noroeste 13 Oeste 0 -- -- 98
2018-01-14 05:00:00 5.4 4 Oeste 13 Oeste 0 -- -- 98
2018-01-14 04:00:00 5 4 Noroeste 12 Oeste 0 -- -- 97
2018-01-14 03:00:00 5.4 4 Oeste 15 Oeste 0 -- -- 97
2018-01-14 02:00:00 6.2 6 Oeste 15 Oeste 0 -- -- 97
2018-01-14 01:00:00 6.1 4 Oeste 12 Sudoeste 0 -- -- 97
2018-01-14 00:00:00 5.3 2 Sudoeste 8 Oeste 0 -- -- 96
2018-01-13 23:00:00 4.3 0 Calma 6 Oeste 0 -- -- 96
2018-01-13 22:00:00 4.7 0 Calma 6 Noroeste 0 -- -- 92
2018-01-13 21:00:00 6.1 5 Noroeste 9 Noroeste 0 -- -- 90
2018-01-13 20:00:00 7 5 Noroeste 12 Noroeste 0 -- -- 89
2018-01-13 19:00:00 6.8 3 Noroeste 15 Noroeste 0 -- -- 86
2018-01-13 18:00:00 8.5 10 Noroeste 32 Noroeste 0 -- -- 82
2018-01-13 17:00:00 9.8 13 Noroeste 31 Noroeste 0 -- -- 77
2018-01-13 16:00:00 9.7 17 Noroeste 31 Noroeste 0 -- -- 79
2018-01-13 15:00:00 8.8 13 Noroeste 28 Noroeste 0 -- -- 86
2018-01-13 14:00:00 8.1 8 Oeste 25 Oeste 0 -- -- 99
2018-01-13 13:00:00 7 8 Sudoeste 24 Sudoeste 0.6 -- -- 98
2018-01-13 12:00:00 6.6 12 Sudoeste 24 Sur 1.2 -- -- 98
2018-01-13 11:00:00 5.7 9 Sur 16 Sur 1.4 -- -- 98
2018-01-13 10:00:00 5.1 9 Sur 16 Sudoeste 2 -- -- 96
2018-01-13 09:00:00 4.9 3 Sudeste 12 Sur 1.2 -- -- 93
2018-01-13 08:00:00 5 6 Sur 10 Sudoeste 0 -- -- 87
2018-01-13 07:00:00 4 0 Calma 4 Sudeste 0 -- -- 91
2018-01-13 06:00:00 4.4 0 Calma 5 Sur 0 -- -- 90
2018-01-13 05:00:00 4.9 3 Sur 7 Sudoeste 0 -- -- 86
2018-01-13 04:00:00 5.3 4 Sudoeste 10 Sur 0 -- -- 85
2018-01-13 03:00:00 4.7 0 Calma 7 Oeste 0 -- -- 90
2018-01-13 02:00:00 3.6 0 Calma 5 Sudoeste 0 -- -- 98
2018-01-13 01:00:00 3 2 Sudoeste 8 Sudoeste 0 -- -- 98
2018-01-13 00:00:00 2.7 3 Noroeste 6 Norte 0 -- -- 98
2018-01-12 23:00:00 2.2 0 Calma 3 Norte 0 -- -- 97
2018-01-12 22:00:00 2.4 0 Calma 3 Noroeste 0 -- -- 97
2018-01-12 21:00:00 2.3 0 Calma 3 Oeste 0 -- -- 94
2018-01-12 20:00:00 3.2 3 Norte 6 Noroeste 0 -- -- 91
2018-01-12 19:00:00 5.2 3 Noroeste 6 Oeste 0 -- -- 84
2018-01-12 18:00:00 8 2 Norte 6 Norte 0 -- -- 75
2018-01-12 17:00:00 9.1 4 Norte 11 Nordeste 0 -- -- 72
2018-01-12 16:00:00 9.9 6 Norte 14 Noroeste 0 -- -- 69
2018-01-12 15:00:00 10.5 2 Oeste 12 Sudoeste 0 -- -- 58
2018-01-12 14:00:00 10.7 6 Sur 13 Sudoeste 0 -- -- 56
2018-01-12 13:00:00 8.5 4 Sudeste 10 Sudeste 0 -- -- 67
2018-01-12 12:00:00 7.6 3 Sur 14 Sudeste 0 -- -- 71
2018-01-12 11:00:00 7 2 Este 6 Sur 0 -- -- 78
2018-01-12 10:00:00 1.9 0 Calma 4 Oeste 0 -- -- 100
2018-01-12 09:00:00 -1 2 Noroeste 4 Oeste 0 -- -- 98
2018-01-12 08:00:00 -1.4 0 Calma 3 Norte 0 -- -- 98
2018-01-12 07:00:00 -1 2 Noroeste 3 Noroeste 0 -- -- 97
2018-01-12 06:00:00 0.1 4 Noroeste 7 Noroeste 0 -- -- 98
2018-01-12 05:00:00 0.2 4 Noroeste 12 Noroeste 0 -- -- 96
2018-01-12 04:00:00 1.1 7 Noroeste 12 Noroeste 0 -- -- 98
2018-01-12 03:00:00 0.6 5 Noroeste 8 Noroeste 0 -- -- 96
2018-01-12 02:00:00 2.6 3 Norte 17 Noroeste 0 -- -- 94
2018-01-12 01:00:00 4 10 Noroeste 21 Noroeste 0 -- -- 95
2018-01-12 00:00:00 3.3 7 Noroeste 12 Noroeste 0 -- -- 96
2018-01-11 23:00:00 3.2 4 Noroeste 8 Noroeste 0 -- -- 94
2018-01-11 22:00:00 4.6 4 Noroeste 15 Oeste 0 -- -- 92
2018-01-11 21:00:00 6 7 Noroeste 16 Noroeste 0 -- -- 90
2018-01-11 20:00:00 6.9 7 Noroeste 15 Noroeste 0 -- -- 86
2018-01-11 19:00:00 8.3 3 Norte 14 Noroeste 0 -- -- 85
2018-01-11 18:00:00 8.4 5 Noroeste 32 Noroeste 0 -- -- 84
2018-01-11 17:00:00 8.9 10 Norte 31 Norte 0 -- -- 83
2018-01-11 16:00:00 10.8 11 Noroeste 28 Noroeste 0 -- -- 75
2018-01-11 15:00:00 9.1 12 Noroeste 30 Noroeste 0 -- -- 84
2018-01-11 14:00:00 9 16 Noroeste 33 Noroeste 0 -- -- 89
2018-01-11 13:00:00 7.5 20 Noroeste 36 Noroeste 0 -- -- 97
2018-01-11 12:00:00 6.8 19 Noroeste 44 Noroeste 0.2 -- -- 96
2018-01-11 11:00:00 7.2 13 Noroeste 35 Noroeste 0 -- -- 97
2018-01-11 10:00:00 6.6 13 Noroeste 30 Noroeste 0 -- -- 96
2018-01-11 09:00:00 5.9 12 Noroeste 26 Noroeste 0 -- -- 96
2018-01-11 08:00:00 5.5 12 Noroeste 25 Noroeste 0 -- -- 96
2018-01-11 07:00:00 5.4 14 Noroeste 29 Noroeste 0 -- -- 96
2018-01-11 06:00:00 4.7 5 Noroeste 15 Noroeste 0 -- -- 97
2018-01-11 05:00:00 4.4 9 Noroeste 17 Noroeste 0 -- -- 98
2018-01-11 04:00:00 3.1 0 Calma 10 Noroeste 0 -- -- 96
2018-01-11 03:00:00 4.7 5 Noroeste 15 Norte 0 -- -- 97
2018-01-11 02:00:00 5.4 7 Noroeste 18 Noroeste 0 -- -- 97
2018-01-11 01:00:00 5.8 8 Noroeste 22 Noroeste 0 -- -- 96
2018-01-11 00:00:00 5.7 11 Noroeste 22 Noroeste 0 -- -- 96
2018-01-10 23:00:00 6 12 Noroeste 27 Noroeste 0 -- -- 96
2018-01-10 22:00:00 6.7 12 Noroeste 31 Noroeste 0 -- -- 95
2018-01-10 21:00:00 7.6 14 Noroeste 29 Noroeste 0 -- -- 96
2018-01-10 20:00:00 8.3 19 Noroeste 37 Noroeste 0 -- -- 96
2018-01-10 19:00:00 8.5 13 Noroeste 26 Noroeste 0 -- -- 95
2018-01-10 18:00:00 9 12 Noroeste 36 Oeste 1.8 -- -- 93
2018-01-10 17:00:00 11.4 13 Oeste 35 Oeste 0 -- -- 83
2018-01-10 16:00:00 12 10 Oeste 30 Sudoeste 0 -- -- 81
2018-01-10 15:00:00 11.8 10 Oeste 40 Oeste 0 -- -- 81
2018-01-10 14:00:00 10.8 10 Oeste 31 Oeste 0 -- -- 91
2018-01-10 13:00:00 10.3 10 Oeste 25 Oeste 0 -- -- 91
2018-01-10 12:00:00 9.8 10 Oeste 28 Oeste 0 -- -- 96
2018-01-10 11:00:00 9 8 Oeste 21 Oeste 0 -- -- 99
2018-01-10 10:00:00 8 4 Oeste 13 Noroeste 0 -- -- 100
2018-01-10 09:00:00 7.8 9 Noroeste 22 Noroeste 0 -- -- 100
2018-01-10 08:00:00 7.8 9 Noroeste 23 Noroeste 0 -- -- 99
2018-01-10 07:00:00 7.3 4 Noroeste 17 Noroeste 0 -- -- 100
2018-01-10 06:00:00 7.1 9 Noroeste 21 Noroeste 0 -- -- 99
2018-01-10 05:00:00 6.9 6 Noroeste 25 Noroeste 0 -- -- 99
2018-01-10 04:00:00 7.2 14 Noroeste 27 Noroeste 0.2 -- -- 99
2018-01-10 03:00:00 7.8 13 Noroeste 29 Noroeste 0 -- -- 98
2018-01-10 02:00:00 8.6 15 Noroeste 28 Oeste 0 -- -- 98
2018-01-10 01:00:00 9.4 6 Oeste 15 Noroeste 0 -- -- 98
2018-01-10 00:00:00 9.4 3 Oeste 14 Oeste 0 -- -- 98
2018-01-09 23:00:00 9.2 3 Sudoeste 18 Sudoeste 0.6 -- -- 98
2018-01-09 22:00:00 9 8 Sur 18 Sur 0.2 -- -- 98
2018-01-09 21:00:00 8.8 10 Sur 24 Sudoeste 0.4 -- -- 97
2018-01-09 20:00:00 8.5 13 Sur 33 Sudoeste 0.4 -- -- 98
2018-01-09 19:00:00 8.1 19 Sur 36 Sur 0.2 -- -- 98
2018-01-09 18:00:00 7.7 19 Sur 40 Sur 1.2 -- -- 98
2018-01-09 17:00:00 7.7 23 Sur 40 Sur 0.8 -- -- 98
2018-01-09 16:00:00 6.8 18 Sur 35 Sur 0.4 -- -- 99
2018-01-09 15:00:00 5.4 14 Sur 27 Sur 1.2 -- -- 98
2018-01-09 14:00:00 5.2 13 Sur 22 Sur 1.6 -- -- 98
2018-01-09 13:00:00 4.8 9 Sur 19 Sur 0.8 -- -- 96
2018-01-09 12:00:00 5.2 8 Sur 23 Sudoeste 0.6 -- -- 95
2018-01-09 11:00:00 4.3 11 Sur 18 Sur 0 -- -- 88
2018-01-09 10:00:00 3.2 7 Sur 18 Sur 0 -- -- 90
2018-01-09 09:00:00 1.8 3 Sudeste 5 Sudeste 0 -- -- 95
2018-01-09 08:00:00 1.3 3 Sur 12 Sur 0 -- -- 94
2018-01-09 07:00:00 0.7 4 Sur 8 Sur 0 -- -- 95
2018-01-09 06:00:00 1.4 4 Sur 13 Sudoeste 0 -- -- 96
2018-01-09 05:00:00 -1.4 0 Calma 6 Sudoeste 0 -- -- 99
2018-01-09 04:00:00 -2.1 2 Sudoeste 4 Sudoeste 0 -- -- 98
2018-01-09 03:00:00 -2 0 Calma 4 Norte 0 -- -- 98
2018-01-09 02:00:00 -1.4 2 Oeste 3 Oeste 0 -- -- 98
2018-01-09 01:00:00 -1.1 0 Calma 5 Norte 0 -- -- 97
2018-01-09 00:00:00 -1.1 0 Calma 4 Sur 0 -- -- 97
2018-01-08 23:00:00 -0.7 3 Noroeste 5 Oeste 0 -- -- 96
2018-01-08 22:00:00 0 4 Noroeste 10 Noroeste 0 -- -- 95
2018-01-08 21:00:00 1.5 6 Noroeste 9 Noroeste 0 -- -- 95
2018-01-08 20:00:00 2.9 5 Noroeste 7 Norte 0 -- -- 90
2018-01-08 19:00:00 4.5 3 Norte 10 Noroeste 0 -- -- 84
2018-01-08 18:00:00 5.6 0 Calma 13 Nordeste 0 -- -- 81
2018-01-08 17:00:00 6 4 Nordeste 19 Nordeste 0 -- -- 77
2018-01-08 16:00:00 6.4 9 Nordeste 21 Nordeste 0 -- -- 76
2018-01-08 15:00:00 5.4 10 Nordeste 18 Nordeste 0 -- -- 81
2018-01-08 14:00:00 4.1 10 Este 25 Nordeste 0 -- -- 89
2018-01-08 13:00:00 3.5 12 Este 26 Nordeste 0 -- -- 93
2018-01-08 12:00:00 2.8 9 Nordeste 20 Norte 0 -- -- 98
2018-01-08 11:00:00 2.2 10 Norte 18 Norte 0 -- -- 98
2018-01-08 10:00:00 1.9 6 Este 18 Este 0 -- -- 98
2018-01-08 09:00:00 2.3 8 Nordeste 19 Nordeste 0 -- -- 98
2018-01-08 08:00:00 2.1 9 Nordeste 17 Nordeste 0.4 -- -- 98
2018-01-08 07:00:00 2.3 9 Norte 15 Nordeste 0.2 -- -- 97
2018-01-08 06:00:00 2.8 6 Nordeste 9 Nordeste 0.2 -- -- 96
2018-01-08 05:00:00 3.4 0 Calma 6 Sur 0.2 -- -- 95
2018-01-08 04:00:00 3.5 2 Sur 7 Sudeste 1.2 -- -- 95
2018-01-08 03:00:00 3.9 0 Calma 3 Norte 0.4 -- -- 93
2018-01-08 02:00:00 4.1 0 Calma 4 Noroeste 0 -- -- 90
2018-01-08 01:00:00 4.5 0 Calma 8 Sudoeste 0 -- -- 87
2018-01-08 00:00:00 4.7 2 Oeste 7 Oeste 0 -- -- 85
2018-01-07 23:00:00 4.5 0 Calma 4 Sur 0 -- -- 85
2018-01-07 22:00:00 4.5 0 Calma 5 Sudoeste 0 -- -- 84
2018-01-07 21:00:00 4.7 2 Oeste 5 Noroeste 0 -- -- 82
2018-01-07 20:00:00 4.7 0 Calma 4 Sudoeste 0 -- -- 85
2018-01-07 19:00:00 4.6 0 Calma 6 Oeste 0 -- -- 83
2018-01-07 18:00:00 4.7 3 Noroeste 12 Oeste 0 -- -- 83
2018-01-07 17:00:00 4.6 6 Noroeste 19 Noroeste 0 -- -- 81
2018-01-07 16:00:00 4.7 10 Noroeste 19 Noroeste 0 -- -- 77
2018-01-07 15:00:00 4.9 10 Noroeste 22 Noroeste 0 -- -- 80
2018-01-07 14:00:00 5.1 12 Noroeste 24 Noroeste 0 -- -- 80
2018-01-07 13:00:00 4.4 12 Noroeste 26 Norte 0.2 -- -- 85
2018-01-07 12:00:00 3.6 12 Norte 24 Norte 0 -- -- 87
2018-01-07 11:00:00 2.8 9 Noroeste 24 Noroeste 0 -- -- 92
2018-01-07 10:00:00 1.9 13 Noroeste 28 Noroeste 0 -- -- 91
2018-01-07 09:00:00 1.5 7 Norte 19 Noroeste 0.2 -- -- 95
2018-01-07 08:00:00 1.5 8 Noroeste 21 Noroeste 0 -- -- 94
2018-01-07 07:00:00 1.1 9 Noroeste 23 Noroeste 0.2 -- -- 95
2018-01-07 06:00:00 1.3 13 Noroeste 27 Noroeste 0 -- -- 94
2018-01-07 05:00:00 1.5 12 Noroeste 28 Noroeste 0 -- -- 95
2018-01-07 04:00:00 1.3 15 Noroeste 27 Noroeste 0 -- -- 96
2018-01-07 03:00:00 1 10 Noroeste 21 Oeste 0 -- -- 96
2018-01-07 02:00:00 0.6 8 Noroeste 18 Noroeste 0 -- -- 94
2018-01-07 01:00:00 1.1 9 Noroeste 19 Noroeste 0 -- -- 92
2018-01-07 00:00:00 1.4 10 Noroeste 17 Noroeste 0 -- -- 89
2018-01-06 23:00:00 1.8 3 Norte 17 Noroeste 0 -- -- 85
2018-01-06 22:00:00 2.6 9 Noroeste 25 Noroeste 0 -- -- 81
2018-01-06 21:00:00 3.2 10 Noroeste 26 Noroeste 0 -- -- 78
2018-01-06 20:00:00 4 11 Noroeste 33 Noroeste 0 -- -- 70
2018-01-06 19:00:00 4.7 13 Noroeste 30 Noroeste 0 -- -- 65
2018-01-06 18:00:00 5.6 14 Noroeste 32 Noroeste 0 -- -- 62
2018-01-06 17:00:00 6.9 20 Noroeste 41 Norte 0 -- -- 53
2018-01-06 16:00:00 7.4 20 Noroeste 44 Noroeste 0 -- -- 56
2018-01-06 15:00:00 7.4 21 Noroeste 39 Noroeste 0 -- -- 57
2018-01-06 14:00:00 7.5 17 Norte 35 Noroeste 0 -- -- 60
2018-01-06 13:00:00 6.6 17 Noroeste 36 Noroeste 0 -- -- 72
2018-01-06 12:00:00 5.6 18 Noroeste 36 Norte 0 -- -- 79
2018-01-06 11:00:00 4.5 17 Noroeste 30 Noroeste 0 -- -- 86
2018-01-06 10:00:00 3.9 15 Noroeste 29 Norte 0 -- -- 86
2018-01-06 09:00:00 3.5 13 Noroeste 29 Noroeste 0 -- -- 92
2018-01-06 08:00:00 4 17 Norte 30 Noroeste 0 -- -- 92
2018-01-06 07:00:00 4.2 11 Norte 26 Norte 0 -- -- 96
2018-01-06 06:00:00 4.7 13 Norte 28 Norte 0 -- -- 97
2018-01-06 05:00:00 5.6 14 Norte 26 Norte 0 -- -- 97
2018-01-06 04:00:00 6 13 Norte 24 Norte 0 -- -- 98
2018-01-06 03:00:00 6.1 4 Norte 8 Norte 0.2 -- -- 98
2018-01-06 02:00:00 5.9 3 Norte 8 Noroeste 0 -- -- 97
2018-01-06 01:00:00 6 2 Noroeste 5 Norte 0.2 -- -- 97
2018-01-06 00:00:00 6.4 5 Norte 19 Noroeste 3 -- -- 97
2018-01-05 23:00:00 7.1 6 Noroeste 16 Norte 1.8 -- -- 97
2018-01-05 22:00:00 7.6 6 Oeste 14 Oeste 1.4 -- -- 98
2018-01-05 21:00:00 7.7 0 Calma 4 Sur 0.2 -- -- 98
2018-01-05 20:00:00 7.8 0 Calma 7 Sur 1.4 -- -- 98
2018-01-05 19:00:00 7.9 4 Sur 14 Sur 1.6 -- -- 97
2018-01-05 18:00:00 8.2 5 Sudeste 16 Noroeste 2.2 -- -- 96
2018-01-05 17:00:00 8.5 11 Noroeste 26 Noroeste 5.6 -- -- 95
2018-01-05 16:00:00 9.9 13 Sudoeste 34 Sudoeste 0 -- -- 92
2018-01-05 15:00:00 11.2 17 Sudoeste 35 Sudoeste 0 -- -- 82
2018-01-05 14:00:00 11.3 12 Sudoeste 31 Sudoeste 0 -- -- 83
2018-01-05 13:00:00 10.8 13 Sudoeste 33 Sur 0 -- -- 85
2018-01-05 12:00:00 10.1 13 Sudoeste 29 Sudoeste 0 -- -- 87
2018-01-05 11:00:00 9.7 12 Sudoeste 26 Sudoeste 0 -- -- 92
2018-01-05 10:00:00 9.1 13 Sudoeste 23 Sudoeste 0.2 -- -- 98
2018-01-05 09:00:00 8.5 6 Sudoeste 19 Oeste 0 -- -- 97
2018-01-05 08:00:00 8.4 5 Sudoeste 20 Oeste 0.6 -- -- 98
2018-01-05 07:00:00 8.3 8 Sudoeste 16 Sudoeste 0.2 -- -- 97
2018-01-05 06:00:00 8.5 5 Sudoeste 19 Oeste 0.2 -- -- 95
2018-01-05 05:00:00 8.9 4 Sudoeste 14 Oeste 0 -- -- 93
2018-01-05 04:00:00 9.3 5 Sudoeste 22 Oeste 0 -- -- 90
2018-01-05 03:00:00 9.6 3 Sudoeste 17 Noroeste 0 -- -- 91
2018-01-05 02:00:00 9.8 5 Oeste 21 Oeste 0 -- -- 92
2018-01-05 01:00:00 10.1 4 Oeste 15 Sudoeste 0 -- -- 93
2018-01-05 00:00:00 10.4 7 Oeste 18 Oeste 0 -- -- 94
2018-01-04 23:00:00 10.7 4 Oeste 16 Oeste 0 -- -- 95
2018-01-04 22:00:00 10.5 4 Oeste 13 Sudoeste 0 -- -- 95
2018-01-04 21:00:00 10.8 3 Oeste 13 Noroeste 0 -- -- 94
2018-01-04 20:00:00 11.4 4 Oeste 11 Oeste 0 -- -- 94
2018-01-04 19:00:00 11.6 3 Oeste 10 Noroeste 0 -- -- 92
2018-01-04 18:00:00 12.1 2 Noroeste 16 Noroeste 0 -- -- 89
2018-01-04 17:00:00 12.4 6 Noroeste 20 Noroeste 0 -- -- 86
2018-01-04 16:00:00 12.5 5 Noroeste 12 Oeste 0 -- -- 86
2018-01-04 15:00:00 11.9 4 Noroeste 16 Norte 0 -- -- 91
2018-01-04 14:00:00 10.9 6 Noroeste 21 Noroeste 0 -- -- 98
2018-01-04 13:00:00 10.7 10 Norte 18 Norte 0 -- -- 98
2018-01-04 12:00:00 10.5 9 Noroeste 17 Noroeste 0 -- -- 99
2018-01-04 11:00:00 10.4 6 Noroeste 15 Norte 0 -- -- 99
2018-01-04 10:00:00 10 7 Norte 14 Norte 0 -- -- 98
2018-01-04 09:00:00 10.6 4 Noroeste 13 Norte 0 -- -- 98
2018-01-04 08:00:00 10.7 4 Norte 10 Noroeste 0 -- -- 97
2018-01-04 07:00:00 10.7 4 Noroeste 12 Norte 0 -- -- 97
2018-01-04 06:00:00 10.9 3 Norte 12 Norte 0 -- -- 97
2018-01-04 05:00:00 11.2 7 Norte 12 Noroeste 0 -- -- 96
2018-01-04 04:00:00 11.4 5 Norte 14 Norte 0 -- -- 96
2018-01-04 03:00:00 11.6 7 Norte 14 Norte 0 -- -- 95
2018-01-04 02:00:00 11.8 8 Norte 18 Noroeste 0 -- -- 92
2018-01-04 01:00:00 11.8 8 Norte 16 Norte 0 -- -- 92
2018-01-04 00:00:00 11.9 7 Norte 13 Norte 0 -- -- 92
2018-01-03 23:00:00 11.8 8 Norte 17 Norte 0 -- -- 93
2018-01-03 22:00:00 11.6 5 Norte 12 Noroeste 0 -- -- 92
2018-01-03 21:00:00 11.7 5 Norte 12 Norte 0 -- -- 92
2018-01-03 20:00:00 12 5 Norte 10 Norte 0 -- -- 92
2018-01-03 19:00:00 12.2 4 Noroeste 12 Norte 0 -- -- 91
2018-01-03 18:00:00 12.5 7 Norte 14 Norte 0 -- -- 88
2018-01-03 17:00:00 12.6 8 Norte 18 Norte 0 -- -- 86
2018-01-03 16:00:00 12.2 9 Norte 20 Noroeste 0 -- -- 90
2018-01-03 15:00:00 12.3 11 Norte 21 Norte 0 -- -- 90
2018-01-03 14:00:00 13.1 11 Norte 18 Norte 0 -- -- 86
2018-01-03 13:00:00 13.1 11 Norte 20 Norte 0 -- -- 87
2018-01-03 12:00:00 12.5 10 Norte 17 Norte 0 -- -- 91
2018-01-03 11:00:00 11 3 Norte 17 Norte 0 -- -- 96
2018-01-03 10:00:00 11.3 9 Norte 20 Norte 0 -- -- 96
2018-01-03 09:00:00 10.2 9 Norte 22 Norte 0 -- -- 99
2018-01-03 08:00:00 10 10 Norte 19 Nordeste 0.2 -- -- 99
2018-01-03 07:00:00 10 8 Norte 19 Norte 0 -- -- 98
2018-01-03 06:00:00 9.9 10 Norte 20 Norte 0 -- -- 98
2018-01-03 05:00:00 9.9 9 Norte 17 Noroeste 0 -- -- 98
2018-01-03 04:00:00 10 8 Norte 14 Norte 0 -- -- 97
2018-01-03 03:00:00 10.1 6 Norte 12 Norte 0 -- -- 97
2018-01-03 02:00:00 10.1 5 Norte 15 Norte 0 -- -- 96
2018-01-03 01:00:00 10.1 6 Norte 11 Nordeste 0 -- -- 96
2018-01-03 00:00:00 9.9 5 Norte 10 Norte 0 -- -- 94
2018-01-02 23:00:00 9.9 5 Norte 17 Norte 0 -- -- 93
2018-01-02 22:00:00 9.5 8 Norte 13 Noroeste 0 -- -- 95
2018-01-02 21:00:00 8.7 3 Norte 11 Norte 0 -- -- 96
2018-01-02 20:00:00 8.7 3 Norte 8 Norte 0 -- -- 93
2018-01-02 19:00:00 10.5 3 Norte 13 Norte 0 -- -- 87
2018-01-02 18:00:00 11.6 10 Noroeste 15 Noroeste 0 -- -- 83
2018-01-02 17:00:00 12.9 7 Noroeste 15 Noroeste 0 -- -- 77
2018-01-02 16:00:00 12.8 4 Norte 17 Norte 0 -- -- 78
2018-01-02 15:00:00 11.7 7 Noroeste 21 Norte 0 -- -- 82
2018-01-02 14:00:00 11.7 10 Norte 19 Norte 0 -- -- 81
2018-01-02 13:00:00 11.4 9 Noroeste 22 Noroeste 0 -- -- 81
2018-01-02 12:00:00 10.5 12 Noroeste 21 Norte 0 -- -- 84
2018-01-02 11:00:00 9 9 Noroeste 19 Norte 0 -- -- 97
2018-01-02 10:00:00 5.1 0 Calma 5 Noroeste 0 -- -- 100
2018-01-02 09:00:00 2.2 2 Noroeste 4 Norte 0 -- -- 99
2018-01-02 08:00:00 2 0 Calma 3 Sudeste 0 -- -- 98
2018-01-02 07:00:00 1.7 2 Norte 5 Norte 0.2 -- -- 99
2018-01-02 06:00:00 1.8 3 Noroeste 5 Noroeste 0 -- -- 99
2018-01-02 05:00:00 1.9 0 Calma 3 Norte 0 -- -- 97
2018-01-02 04:00:00 3.4 3 Sur 6 Sur 0 -- -- 97
2018-01-02 03:00:00 4.2 0 Calma 7 Norte 0 -- -- 97
2018-01-02 02:00:00 5.4 6 Norte 12 Norte 0 -- -- 97
2018-01-02 01:00:00 5.4 8 Noroeste 12 Noroeste 0 -- -- 97
2018-01-02 00:00:00 4.8 0 Calma 11 Norte 0 -- -- 95
2018-01-01 23:00:00 5.4 7 Norte 10 Noroeste 0 -- -- 97
2018-01-01 22:00:00 3.3 6 Noroeste 8 Noroeste 0 -- -- 95
2018-01-01 21:00:00 4.9 2 Norte 3 Norte 0 -- -- 93
2018-01-01 20:00:00 5.9 2 Norte 8 Noroeste 0 -- -- 91
2018-01-01 19:00:00 7 5 Noroeste 8 Noroeste 0 -- -- 84
2018-01-01 18:00:00 9.5 3 Noroeste 14 Noroeste 0 -- -- 74
2018-01-01 17:00:00 10.8 6 Noroeste 17 Noroeste 0 -- -- 68
2018-01-01 16:00:00 11.5 8 Noroeste 18 Norte 0 -- -- 63
2018-01-01 15:00:00 11.2 9 Noroeste 20 Noroeste 0 -- -- 58
2018-01-01 14:00:00 11.3 12 Noroeste 19 Noroeste 0 -- -- 55
2018-01-01 13:00:00 10.8 6 Noroeste 14 Norte 0 -- -- 62
2018-01-01 12:00:00 10.5 3 Sur 10 Oeste 0 -- -- 78
2018-01-01 11:00:00 8.7 5 Oeste 16 Oeste 0 -- -- 80
2018-01-01 10:00:00 6.2 8 Noroeste 18 Noroeste 0 -- -- 100
2018-01-01 09:00:00 1.6 0 Calma 6 Oeste 0 -- -- 99
2018-01-01 08:00:00 1.8 3 Noroeste 8 Oeste 0 -- -- 99
2018-01-01 07:00:00 1.8 0 Calma 4 Noroeste 0 -- -- 98
2018-01-01 06:00:00 3.5 0 Calma 9 Nordeste 0.2 -- -- 99
2018-01-01 05:00:00 2.2 0 Calma 5 Sudeste 0 -- -- 97
2018-01-01 04:00:00 2 3 Noroeste 4 Noroeste 0 -- -- 97
2018-01-01 03:00:00 4 3 Sur 12 Noroeste 0 -- -- 98
2018-01-01 02:00:00 4.6 6 Noroeste 9 Noroeste 0 -- -- 98
2018-01-01 01:00:00 5.1 0 Calma 11 Noroeste 0 -- -- 96
2018-01-01 00:00:00 6.1 3 Noroeste 14 Noroeste 0 -- -- 96
2017-12-31 23:00:00 6.9 5 Norte 14 Norte 0 -- -- 96
2017-12-31 22:00:00 8.2 6 Noroeste 20 Noroeste 0.2 -- -- 97
2017-12-31 21:00:00 8.5 7 Noroeste 20 Norte 0 -- -- 96
2017-12-31 20:00:00 9.3 10 Noroeste 27 Norte 0 -- -- 96
2017-12-31 19:00:00 9.6 13 Noroeste 35 Noroeste 0 -- -- 96
2017-12-31 18:00:00 10.5 16 Noroeste 32 Noroeste 1 -- -- 95
2017-12-31 17:00:00 11 9 Oeste 26 Noroeste 0.6 -- -- 93
2017-12-31 16:00:00 12.4 8 Sudoeste 30 Oeste 0 -- -- 81
2017-12-31 15:00:00 13.1 9 Oeste 27 Noroeste 0 -- -- 75
2017-12-31 14:00:00 12.7 9 Oeste 30 Oeste 0 -- -- 78
2017-12-31 13:00:00 11.7 10 Oeste 27 Sudoeste 0 -- -- 81
2017-12-31 12:00:00 11.3 4 Sudoeste 24 Sudoeste 0 -- -- 84
2017-12-31 11:00:00 10 4 Sudoeste 13 Oeste 0 -- -- 98
2017-12-31 10:00:00 8.4 3 Sur 5 Sur 0 -- -- 100
2017-12-31 09:00:00 6.5 0 Calma 3 Sur 0 -- -- 99
2017-12-31 08:00:00 6.3 0 Calma 5 Oeste 0 -- -- 99
2017-12-31 07:00:00 6.7 3 Oeste 8 Noroeste 0 -- -- 100
2017-12-31 06:00:00 5.1 2 Oeste 4 Oeste 0 -- -- 99
2017-12-31 05:00:00 4.9 0 Calma 4 Noroeste 0 -- -- 99
2017-12-31 04:00:00 5.3 0 Calma 2 Noroeste 0 -- -- 98
2017-12-31 03:00:00 5.8 0 Calma 3 Norte 0 -- -- 98
2017-12-31 02:00:00 6 0 Calma 5 Norte 0 -- -- 98
2017-12-31 01:00:00 6 0 Calma 4 Norte 0 -- -- 98